sensor_id;sensor_type;location;lat;lon;timestamp;temperature;humidity
24814;DHT22;12904;50.088;11.414;2023-10-13T00:01:24;15.20;99.90
24814;DHT22;12904;50.088;11.414;2023-10-13T00:03:50;15.20;99.90
24814;DHT22;12904;50.088;11.414;2023-10-13T00:06:19;15.20;99.90
24814;DHT22;12904;50.088;11.414;2023-10-13T00:08:45;15.20;99.90
24814;DHT22;12904;50.088;11.414;2023-10-13T00:11:15;15.30;99.90
24814;DHT22;12904;50.088;11.414;2023-10-13T00:13:41;15.30;99.90
24814;DHT22;12904;50.088;11.414;2023-10-13T00:16:09;15.30;99.90
24814;DHT22;12904;50.088;11.414;2023-10-13T00:18:42;15.30;99.90
24814;DHT22;12904;50.088;11.414;2023-10-13T00:21:10;15.30;99.90
24814;DHT22;12904;50.088;11.414;2023-10-13T00:23:43;15.30;99.90
24814;DHT22;12904;50.088;11.414;2023-10-13T00:26:18;15.30;99.90
24814;DHT22;12904;50.088;11.414;2023-10-13T00:28:44;15.30;99.90
24814;DHT22;12904;50.088;11.414;2023-10-13T00:31:13;15.30;99.90
24814;DHT22;12904;50.088;11.414;2023-10-13T00:33:42;15.30;99.90
24814;DHT22;12904;50.088;11.414;2023-10-13T00:36:08;15.30;99.90
24814;DHT22;12904;50.088;11.414;2023-10-13T00:38:42;15.30;99.90
24814;DHT22;12904;50.088;11.414;2023-10-13T00:41:07;15.30;99.90
24814;DHT22;12904;50.088;11.414;2023-10-13T00:43:49;15.30;99.90
24814;DHT22;12904;50.088;11.414;2023-10-13T00:46:34;15.30;99.90
24814;DHT22;12904;50.088;11.414;2023-10-13T00:49:03;15.30;99.90
24814;DHT22;12904;50.088;11.414;2023-10-13T00:51:33;15.20;99.90
24814;DHT22;12904;50.088;11.414;2023-10-13T00:54:07;15.10;99.90
24814;DHT22;12904;50.088;11.414;2023-10-13T00:56:41;15.00;99.90
24814;DHT22;12904;50.088;11.414;2023-10-13T00:59:15;15.00;99.90
24814;DHT22;12904;50.088;11.414;2023-10-13T01:01:41;15.00;99.90
24814;DHT22;12904;50.088;11.414;2023-10-13T01:04:11;15.10;99.90
24814;DHT22;12904;50.088;11.414;2023-10-13T01:06:40;15.10;99.90
24814;DHT22;12904;50.088;11.414;2023-10-13T01:09:10;15.10;99.90
24814;DHT22;12904;50.088;11.414;2023-10-13T01:11:49;15.20;99.90
24814;DHT22;12904;50.088;11.414;2023-10-13T01:14:19;15.20;99.90
24814;DHT22;12904;50.088;11.414;2023-10-13T01:16:47;15.20;99.90
24814;DHT22;12904;50.088;11.414;2023-10-13T01:19:16;15.20;99.90
24814;DHT22;12904;50.088;11.414;2023-10-13T01:21:51;15.20;99.90
24814;DHT22;12904;50.088;11.414;2023-10-13T01:24:22;15.30;99.90
24814;DHT22;12904;50.088;11.414;2023-10-13T01:26:49;15.30;99.90
24814;DHT22;12904;50.088;11.414;2023-10-13T01:29:16;15.20;99.90
24814;DHT22;12904;50.088;11.414;2023-10-13T01:31:45;15.20;99.90
24814;DHT22;12904;50.088;11.414;2023-10-13T01:34:15;15.20;99.90
24814;DHT22;12904;50.088;11.414;2023-10-13T01:36:55;15.20;99.90
24814;DHT22;12904;50.088;11.414;2023-10-13T01:39:22;15.10;99.90
24814;DHT22;12904;50.088;11.414;2023-10-13T01:41:52;15.10;99.90
24814;DHT22;12904;50.088;11.414;2023-10-13T01:44:27;15.00;99.90
24814;DHT22;12904;50.088;11.414;2023-10-13T01:46:59;15.00;99.90
24814;DHT22;12904;50.088;11.414;2023-10-13T01:49:34;14.90;99.90
24814;DHT22;12904;50.088;11.414;2023-10-13T01:52:13;14.90;99.90
24814;DHT22;12904;50.088;11.414;2023-10-13T01:54:43;14.90;99.90
24814;DHT22;12904;50.088;11.414;2023-10-13T01:57:11;14.90;99.90
24814;DHT22;12904;50.088;11.414;2023-10-13T01:59:43;14.90;99.90
24814;DHT22;12904;50.088;11.414;2023-10-13T02:02:10;14.90;99.90
24814;DHT22;12904;50.088;11.414;2023-10-13T02:04:41;14.90;99.90
24814;DHT22;12904;50.088;11.414;2023-10-13T02:07:26;14.70;99.90
24814;DHT22;12904;50.088;11.414;2023-10-13T02:10:00;14.70;99.90
24814;DHT22;12904;50.088;11.414;2023-10-13T02:12:29;14.70;99.90
24814;DHT22;12904;50.088;11.414;2023-10-13T02:15:11;14.60;99.90
24814;DHT22;12904;50.088;11.414;2023-10-13T02:17:57;14.50;99.90
24814;DHT22;12904;50.088;11.414;2023-10-13T02:20:25;14.40;99.90
24814;DHT22;12904;50.088;11.414;2023-10-13T02:22:59;14.40;99.90
24814;DHT22;12904;50.088;11.414;2023-10-13T02:25:25;14.40;99.90
24814;DHT22;12904;50.088;11.414;2023-10-13T02:28:23;14.40;99.90
24814;DHT22;12904;50.088;11.414;2023-10-13T02:30:53;14.50;99.90
24814;DHT22;12904;50.088;11.414;2023-10-13T02:33:19;14.50;99.90
24814;DHT22;12904;50.088;11.414;2023-10-13T02:35:48;14.60;99.90
24814;DHT22;12904;50.088;11.414;2023-10-13T02:38:21;14.60;99.90
24814;DHT22;12904;50.088;11.414;2023-10-13T02:41:16;14.60;99.90
24814;DHT22;12904;50.088;11.414;2023-10-13T02:43:51;14.70;99.90
24814;DHT22;12904;50.088;11.414;2023-10-13T02:46:18;14.70;99.90
24814;DHT22;12904;50.088;11.414;2023-10-13T02:48:48;14.80;99.90
24814;DHT22;12904;50.088;11.414;2023-10-13T02:51:19;14.80;99.90
24814;DHT22;12904;50.088;11.414;2023-10-13T02:53:49;14.90;99.90
24814;DHT22;12904;50.088;11.414;2023-10-13T02:56:16;14.90;99.90
24814;DHT22;12904;50.088;11.414;2023-10-13T02:58:51;14.90;99.90
24814;DHT22;12904;50.088;11.414;2023-10-13T03:01:31;14.90;99.90
24814;DHT22;12904;50.088;11.414;2023-10-13T03:04:00;15.00;99.90
24814;DHT22;12904;50.088;11.414;2023-10-13T03:06:26;15.00;99.90
24814;DHT22;12904;50.088;11.414;2023-10-13T03:09:01;15.00;99.90
24814;DHT22;12904;50.088;11.414;2023-10-13T03:11:39;15.00;99.90
24814;DHT22;12904;50.088;11.414;2023-10-13T03:14:09;14.90;99.90
24814;DHT22;12904;50.088;11.414;2023-10-13T03:16:45;14.80;99.90
24814;DHT22;12904;50.088;11.414;2023-10-13T03:19:11;14.80;99.90
24814;DHT22;12904;50.088;11.414;2023-10-13T03:21:36;14.80;99.90
24814;DHT22;12904;50.088;11.414;2023-10-13T03:24:02;14.70;99.90
24814;DHT22;12904;50.088;11.414;2023-10-13T03:26:32;14.70;99.90
24814;DHT22;12904;50.088;11.414;2023-10-13T03:29:03;14.70;99.90
24814;DHT22;12904;50.088;11.414;2023-10-13T03:31:33;14.60;99.90
24814;DHT22;12904;50.088;11.414;2023-10-13T03:34:05;14.60;99.90
24814;DHT22;12904;50.088;11.414;2023-10-13T03:36:36;14.60;99.90
24814;DHT22;12904;50.088;11.414;2023-10-13T03:39:20;14.60;99.90
24814;DHT22;12904;50.088;11.414;2023-10-13T03:41:52;14.60;99.90
24814;DHT22;12904;50.088;11.414;2023-10-13T03:44:19;14.60;99.90
24814;DHT22;12904;50.088;11.414;2023-10-13T03:46:46;14.70;99.90
24814;DHT22;12904;50.088;11.414;2023-10-13T03:49:17;14.70;99.90
24814;DHT22;12904;50.088;11.414;2023-10-13T03:51:48;14.80;99.90
24814;DHT22;12904;50.088;11.414;2023-10-13T03:54:14;14.80;99.90
24814;DHT22;12904;50.088;11.414;2023-10-13T03:56:42;14.80;99.90
24814;DHT22;12904;50.088;11.414;2023-10-13T03:59:11;14.80;99.90
24814;DHT22;12904;50.088;11.414;2023-10-13T04:01:42;14.80;99.90
24814;DHT22;12904;50.088;11.414;2023-10-13T04:04:18;14.80;99.90
24814;DHT22;12904;50.088;11.414;2023-10-13T04:07:02;14.70;99.90
24814;DHT22;12904;50.088;11.414;2023-10-13T04:09:36;14.60;99.90
24814;DHT22;12904;50.088;11.414;2023-10-13T04:12:04;14.60;99.90
24814;DHT22;12904;50.088;11.414;2023-10-13T04:14:32;14.70;99.90
24814;DHT22;12904;50.088;11.414;2023-10-13T04:17:10;14.70;99.90
24814;DHT22;12904;50.088;11.414;2023-10-13T04:19:48;14.80;99.90
24814;DHT22;12904;50.088;11.414;2023-10-13T04:22:43;14.80;99.90
24814;DHT22;12904;50.088;11.414;2023-10-13T04:25:16;14.90;99.90
24814;DHT22;12904;50.088;11.414;2023-10-13T04:28:04;14.90;99.90
24814;DHT22;12904;50.088;11.414;2023-10-13T04:30:44;14.90;99.90
24814;DHT22;12904;50.088;11.414;2023-10-13T04:36:10;14.80;99.90
24814;DHT22;12904;50.088;11.414;2023-10-13T04:38:50;14.80;99.90
24814;DHT22;12904;50.088;11.414;2023-10-13T04:41:27;14.80;99.90
24814;DHT22;12904;50.088;11.414;2023-10-13T04:47:08;14.70;99.90
24814;DHT22;12904;50.088;11.414;2023-10-13T04:49:39;14.70;99.90
24814;DHT22;12904;50.088;11.414;2023-10-13T04:52:08;14.70;99.90
24814;DHT22;12904;50.088;11.414;2023-10-13T04:54:35;14.70;99.90
24814;DHT22;12904;50.088;11.414;2023-10-13T04:57:24;14.70;99.90
24814;DHT22;12904;50.088;11.414;2023-10-13T05:00:09;14.70;99.90
24814;DHT22;12904;50.088;11.414;2023-10-13T05:02:42;14.60;99.90
24814;DHT22;12904;50.088;11.414;2023-10-13T05:05:26;14.60;99.90
24814;DHT22;12904;50.088;11.414;2023-10-13T05:08:12;14.60;99.90
24814;DHT22;12904;50.088;11.414;2023-10-13T05:10:56;14.50;99.90
24814;DHT22;12904;50.088;11.414;2023-10-13T05:14:00;14.50;99.90
24814;DHT22;12904;50.088;11.414;2023-10-13T05:16:44;14.40;99.90
24814;DHT22;12904;50.088;11.414;2023-10-13T05:19:29;14.50;99.90
24814;DHT22;12904;50.088;11.414;2023-10-13T05:22:13;14.50;99.90
24814;DHT22;12904;50.088;11.414;2023-10-13T05:24:57;14.50;99.90
24814;DHT22;12904;50.088;11.414;2023-10-13T05:27:41;14.60;99.90
24814;DHT22;12904;50.088;11.414;2023-10-13T05:30:26;14.60;99.90
24814;DHT22;12904;50.088;11.414;2023-10-13T05:33:10;14.60;99.90
24814;DHT22;12904;50.088;11.414;2023-10-13T05:35:54;14.70;99.90
24814;DHT22;12904;50.088;11.414;2023-10-13T05:38:39;14.70;99.90
24814;DHT22;12904;50.088;11.414;2023-10-13T05:41:23;14.60;99.90
24814;DHT22;12904;50.088;11.414;2023-10-13T05:44:07;14.60;99.90
24814;DHT22;12904;50.088;11.414;2023-10-13T05:46:51;14.60;99.90
24814;DHT22;12904;50.088;11.414;2023-10-13T05:49:43;14.70;99.90
24814;DHT22;12904;50.088;11.414;2023-10-13T05:52:16;14.70;99.90
24814;DHT22;12904;50.088;11.414;2023-10-13T05:55:05;14.70;99.90
24814;DHT22;12904;50.088;11.414;2023-10-13T05:57:49;14.80;99.90
24814;DHT22;12904;50.088;11.414;2023-10-13T06:00:38;14.80;99.90
24814;DHT22;12904;50.088;11.414;2023-10-13T06:03:23;14.80;99.90
24814;DHT22;12904;50.088;11.414;2023-10-13T06:06:07;14.70;99.90
24814;DHT22;12904;50.088;11.414;2023-10-13T06:08:51;14.70;99.90
24814;DHT22;12904;50.088;11.414;2023-10-13T06:11:36;14.70;99.90
24814;DHT22;12904;50.088;11.414;2023-10-13T06:14:20;14.80;99.90
24814;DHT22;12904;50.088;11.414;2023-10-13T06:17:04;14.80;99.90
24814;DHT22;12904;50.088;11.414;2023-10-13T06:19:48;14.80;99.90
24814;DHT22;12904;50.088;11.414;2023-10-13T06:22:33;14.80;99.90
24814;DHT22;12904;50.088;11.414;2023-10-13T06:25:17;14.80;99.90
24814;DHT22;12904;50.088;11.414;2023-10-13T06:28:02;14.80;99.90
24814;DHT22;12904;50.088;11.414;2023-10-13T06:30:57;14.80;99.90
24814;DHT22;12904;50.088;11.414;2023-10-13T06:33:23;14.90;99.90
24814;DHT22;12904;50.088;11.414;2023-10-13T06:35:57;14.90;99.90
24814;DHT22;12904;50.088;11.414;2023-10-13T06:38:23;15.00;99.90
24814;DHT22;12904;50.088;11.414;2023-10-13T06:40:49;15.00;99.90
24814;DHT22;12904;50.088;11.414;2023-10-13T06:43:17;15.10;99.90
24814;DHT22;12904;50.088;11.414;2023-10-13T06:45:47;15.10;99.90
24814;DHT22;12904;50.088;11.414;2023-10-13T06:48:25;15.20;99.90
24814;DHT22;12904;50.088;11.414;2023-10-13T06:50:52;15.20;99.90
24814;DHT22;12904;50.088;11.414;2023-10-13T06:53:20;15.30;99.90
24814;DHT22;12904;50.088;11.414;2023-10-13T06:55:46;15.30;99.90
24814;DHT22;12904;50.088;11.414;2023-10-13T06:58:18;15.40;99.90
24814;DHT22;12904;50.088;11.414;2023-10-13T07:00:49;15.40;99.90
24814;DHT22;12904;50.088;11.414;2023-10-13T07:03:23;15.50;99.90
24814;DHT22;12904;50.088;11.414;2023-10-13T07:05:50;15.60;99.90
24814;DHT22;12904;50.088;11.414;2023-10-13T07:08:17;15.70;99.90
24814;DHT22;12904;50.088;11.414;2023-10-13T07:10:52;15.70;99.90
24814;DHT22;12904;50.088;11.414;2023-10-13T07:13:28;15.70;99.90
24814;DHT22;12904;50.088;11.414;2023-10-13T07:15:54;15.80;99.90
24814;DHT22;12904;50.088;11.414;2023-10-13T07:18:31;15.80;99.90
24814;DHT22;12904;50.088;11.414;2023-10-13T07:21:03;15.80;99.90
24814;DHT22;12904;50.088;11.414;2023-10-13T07:23:36;15.80;99.90
24814;DHT22;12904;50.088;11.414;2023-10-13T07:26:02;15.80;99.90
24814;DHT22;12904;50.088;11.414;2023-10-13T07:28:31;15.90;99.90
24814;DHT22;12904;50.088;11.414;2023-10-13T07:31:04;15.90;99.90
24814;DHT22;12904;50.088;11.414;2023-10-13T07:33:30;16.00;99.90
24814;DHT22;12904;50.088;11.414;2023-10-13T07:36:06;16.00;99.90
24814;DHT22;12904;50.088;11.414;2023-10-13T07:38:53;16.10;99.90
24814;DHT22;12904;50.088;11.414;2023-10-13T07:41:45;16.20;99.90
24814;DHT22;12904;50.088;11.414;2023-10-13T07:44:17;16.30;99.90
24814;DHT22;12904;50.088;11.414;2023-10-13T07:46:45;16.40;99.90
24814;DHT22;12904;50.088;11.414;2023-10-13T07:49:14;16.50;99.90
24814;DHT22;12904;50.088;11.414;2023-10-13T07:51:40;16.70;99.90
24814;DHT22;12904;50.088;11.414;2023-10-13T07:54:18;16.90;99.90
24814;DHT22;12904;50.088;11.414;2023-10-13T07:56:50;17.00;99.90
24814;DHT22;12904;50.088;11.414;2023-10-13T07:59:16;17.10;99.90
24814;DHT22;12904;50.088;11.414;2023-10-13T08:01:42;17.20;99.90
24814;DHT22;12904;50.088;11.414;2023-10-13T08:04:11;17.30;99.90
24814;DHT22;12904;50.088;11.414;2023-10-13T08:06:40;17.30;99.90
24814;DHT22;12904;50.088;11.414;2023-10-13T08:09:07;17.40;99.90
24814;DHT22;12904;50.088;11.414;2023-10-13T08:11:51;17.40;99.90
24814;DHT22;12904;50.088;11.414;2023-10-13T08:14:19;17.50;99.90
24814;DHT22;12904;50.088;11.414;2023-10-13T08:16:49;17.70;99.90
24814;DHT22;12904;50.088;11.414;2023-10-13T08:19:21;17.80;99.90
24814;DHT22;12904;50.088;11.414;2023-10-13T08:21:55;18.00;99.90
24814;DHT22;12904;50.088;11.414;2023-10-13T08:24:40;18.10;99.90
24814;DHT22;12904;50.088;11.414;2023-10-13T08:27:06;18.20;99.90
24814;DHT22;12904;50.088;11.414;2023-10-13T08:29:51;18.40;99.90
24814;DHT22;12904;50.088;11.414;2023-10-13T08:32:23;18.40;99.90
24814;DHT22;12904;50.088;11.414;2023-10-13T08:37:21;18.40;99.90
24814;DHT22;12904;50.088;11.414;2023-10-13T08:39:48;18.30;99.90
24814;DHT22;12904;50.088;11.414;2023-10-13T08:42:36;18.30;99.90
24814;DHT22;12904;50.088;11.414;2023-10-13T08:48:07;18.30;99.90
24814;DHT22;12904;50.088;11.414;2023-10-13T08:50:49;18.30;99.90
24814;DHT22;12904;50.088;11.414;2023-10-13T08:56:09;18.40;99.90
24814;DHT22;12904;50.088;11.414;2023-10-13T09:01:23;18.60;99.90
24814;DHT22;12904;50.088;11.414;2023-10-13T09:04:15;18.60;99.90
24814;DHT22;12904;50.088;11.414;2023-10-13T09:06:56;18.60;99.90
24814;DHT22;12904;50.088;11.414;2023-10-13T09:09:46;18.80;99.90
24814;DHT22;12904;50.088;11.414;2023-10-13T09:12:16;18.90;99.90
24814;DHT22;12904;50.088;11.414;2023-10-13T09:14:53;19.10;99.90
24814;DHT22;12904;50.088;11.414;2023-10-13T09:17:24;19.20;99.90
24814;DHT22;12904;50.088;11.414;2023-10-13T09:20:00;19.10;99.90
24814;DHT22;12904;50.088;11.414;2023-10-13T09:22:46;19.10;99.90
24814;DHT22;12904;50.088;11.414;2023-10-13T09:25:30;19.10;99.90
24814;DHT22;12904;50.088;11.414;2023-10-13T09:27:59;19.20;99.90
24814;DHT22;12904;50.088;11.414;2023-10-13T09:30:26;19.20;99.90
24814;DHT22;12904;50.088;11.414;2023-10-13T09:33:03;19.30;99.90
24814;DHT22;12904;50.088;11.414;2023-10-13T09:35:44;19.60;99.90
24814;DHT22;12904;50.088;11.414;2023-10-13T09:38:17;20.20;99.90
24814;DHT22;12904;50.088;11.414;2023-10-13T09:40:44;20.40;99.90
24814;DHT22;12904;50.088;11.414;2023-10-13T09:43:19;20.70;99.90
24814;DHT22;12904;50.088;11.414;2023-10-13T09:45:48;21.00;99.90
24814;DHT22;12904;50.088;11.414;2023-10-13T09:48:38;21.00;99.90
24814;DHT22;12904;50.088;11.414;2023-10-13T09:51:18;21.00;99.90
24814;DHT22;12904;50.088;11.414;2023-10-13T09:56:37;21.00;99.90
24814;DHT22;12904;50.088;11.414;2023-10-13T09:59:19;21.00;99.90
24814;DHT22;12904;50.088;11.414;2023-10-13T10:01:48;20.80;99.90
24814;DHT22;12904;50.088;11.414;2023-10-13T10:04:18;20.80;99.90
24814;DHT22;12904;50.088;11.414;2023-10-13T10:06:57;20.90;99.90
24814;DHT22;12904;50.088;11.414;2023-10-13T10:09:32;21.00;99.90
24814;DHT22;12904;50.088;11.414;2023-10-13T10:17:14;21.20;99.90
24814;DHT22;12904;50.088;11.414;2023-10-13T10:19:49;21.30;99.90
24814;DHT22;12904;50.088;11.414;2023-10-13T10:22:29;21.40;99.90
24814;DHT22;12904;50.088;11.414;2023-10-13T10:25:06;21.50;99.90
24814;DHT22;12904;50.088;11.414;2023-10-13T10:27:56;21.50;99.90
24814;DHT22;12904;50.088;11.414;2023-10-13T10:30:28;21.70;99.90
24814;DHT22;12904;50.088;11.414;2023-10-13T10:32:56;22.00;99.90
24814;DHT22;12904;50.088;11.414;2023-10-13T10:35:41;22.10;99.90
24814;DHT22;12904;50.088;11.414;2023-10-13T10:40:49;22.50;99.90
24814;DHT22;12904;50.088;11.414;2023-10-13T10:43:38;22.60;99.90
24814;DHT22;12904;50.088;11.414;2023-10-13T10:46:26;22.60;99.90
24814;DHT22;12904;50.088;11.414;2023-10-13T10:49:05;22.70;99.90
24814;DHT22;12904;50.088;11.414;2023-10-13T10:51:36;22.80;99.90
24814;DHT22;12904;50.088;11.414;2023-10-13T10:54:18;22.80;99.90
24814;DHT22;12904;50.088;11.414;2023-10-13T10:56:44;22.80;99.90
24814;DHT22;12904;50.088;11.414;2023-10-13T10:59:18;22.80;99.90
24814;DHT22;12904;50.088;11.414;2023-10-13T11:01:46;22.70;99.90
24814;DHT22;12904;50.088;11.414;2023-10-13T11:04:18;22.50;99.90
24814;DHT22;12904;50.088;11.414;2023-10-13T11:06:56;22.30;99.90
24814;DHT22;12904;50.088;11.414;2023-10-13T11:12:15;22.10;99.90
24814;DHT22;12904;50.088;11.414;2023-10-13T11:14:42;22.00;99.90
24814;DHT22;12904;50.088;11.414;2023-10-13T11:17:21;22.00;99.90
24814;DHT22;12904;50.088;11.414;2023-10-13T11:19:52;22.10;99.90
24814;DHT22;12904;50.088;11.414;2023-10-13T11:22:22;22.10;99.90
24814;DHT22;12904;50.088;11.414;2023-10-13T11:25:08;22.10;99.90
24814;DHT22;12904;50.088;11.414;2023-10-13T11:27:40;22.10;99.90
24814;DHT22;12904;50.088;11.414;2023-10-13T11:30:18;22.20;99.90
24814;DHT22;12904;50.088;11.414;2023-10-13T11:33:00;22.40;99.90
24814;DHT22;12904;50.088;11.414;2023-10-13T11:35:26;22.70;99.90
24814;DHT22;12904;50.088;11.414;2023-10-13T11:38:12;23.00;99.90
24814;DHT22;12904;50.088;11.414;2023-10-13T11:40:41;23.30;99.90
24814;DHT22;12904;50.088;11.414;2023-10-13T11:43:24;23.60;99.90
24814;DHT22;12904;50.088;11.414;2023-10-13T11:45:50;23.90;99.90
24814;DHT22;12904;50.088;11.414;2023-10-13T11:48:39;24.10;99.90
24814;DHT22;12904;50.088;11.414;2023-10-13T11:51:08;24.10;99.90
24814;DHT22;12904;50.088;11.414;2023-10-13T11:53:37;24.00;99.90
24814;DHT22;12904;50.088;11.414;2023-10-13T11:56:04;23.90;99.90
24814;DHT22;12904;50.088;11.414;2023-10-13T11:58:39;24.00;99.90
24814;DHT22;12904;50.088;11.414;2023-10-13T12:01:06;24.10;99.90
24814;DHT22;12904;50.088;11.414;2023-10-13T12:03:38;24.40;99.90
24814;DHT22;12904;50.088;11.414;2023-10-13T12:06:22;24.50;99.90
24814;DHT22;12904;50.088;11.414;2023-10-13T12:08:48;24.40;95.10
24814;DHT22;12904;50.088;11.414;2023-10-13T12:11:18;24.30;96.80
24814;DHT22;12904;50.088;11.414;2023-10-13T12:13:56;24.20;94.70
24814;DHT22;12904;50.088;11.414;2023-10-13T12:16:22;24.10;94.30
24814;DHT22;12904;50.088;11.414;2023-10-13T12:18:48;24.10;94.30
24814;DHT22;12904;50.088;11.414;2023-10-13T12:21:19;24.50;99.90
24814;DHT22;12904;50.088;11.414;2023-10-13T12:23:46;24.60;98.10
24814;DHT22;12904;50.088;11.414;2023-10-13T12:26:12;24.80;94.20
24814;DHT22;12904;50.088;11.414;2023-10-13T12:28:58;24.70;91.80
24814;DHT22;12904;50.088;11.414;2023-10-13T12:31:34;24.80;99.90
24814;DHT22;12904;50.088;11.414;2023-10-13T12:34:04;24.90;92.80
24814;DHT22;12904;50.088;11.414;2023-10-13T12:36:39;24.80;92.00
24814;DHT22;12904;50.088;11.414;2023-10-13T12:39:18;24.80;91.10
24814;DHT22;12904;50.088;11.414;2023-10-13T12:42:03;24.70;91.20
24814;DHT22;12904;50.088;11.414;2023-10-13T12:44:47;24.70;90.90
24814;DHT22;12904;50.088;11.414;2023-10-13T12:47:33;24.80;89.90
24814;DHT22;12904;50.088;11.414;2023-10-13T12:50:17;25.00;90.60
24814;DHT22;12904;50.088;11.414;2023-10-13T12:53:00;25.20;85.00
24814;DHT22;12904;50.088;11.414;2023-10-13T12:55:25;25.40;85.30
24814;DHT22;12904;50.088;11.414;2023-10-13T12:57:51;25.70;93.30
24814;DHT22;12904;50.088;11.414;2023-10-13T13:00:16;26.00;86.40
24814;DHT22;12904;50.088;11.414;2023-10-13T13:02:46;26.10;81.80
24814;DHT22;12904;50.088;11.414;2023-10-13T13:05:12;26.20;79.10
24814;DHT22;12904;50.088;11.414;2023-10-13T13:07:41;26.30;79.70
24814;DHT22;12904;50.088;11.414;2023-10-13T13:10:18;26.10;78.10
24814;DHT22;12904;50.088;11.414;2023-10-13T13:12:44;25.90;75.60
24814;DHT22;12904;50.088;11.414;2023-10-13T13:15:10;25.80;81.60
24814;DHT22;12904;50.088;11.414;2023-10-13T13:17:38;25.50;80.60
24814;DHT22;12904;50.088;11.414;2023-10-13T13:20:07;25.30;84.00
24814;DHT22;12904;50.088;11.414;2023-10-13T13:22:39;25.10;82.90
24814;DHT22;12904;50.088;11.414;2023-10-13T13:25:05;25.00;84.50
24814;DHT22;12904;50.088;11.414;2023-10-13T13:27:34;24.90;92.10
24814;DHT22;12904;50.088;11.414;2023-10-13T13:30:00;24.80;91.00
24814;DHT22;12904;50.088;11.414;2023-10-13T13:32:26;24.80;89.80
24814;DHT22;12904;50.088;11.414;2023-10-13T13:34:54;24.70;87.40
24814;DHT22;12904;50.088;11.414;2023-10-13T13:37:22;24.70;82.80
24814;DHT22;12904;50.088;11.414;2023-10-13T13:39:48;24.70;85.20
24814;DHT22;12904;50.088;11.414;2023-10-13T13:42:18;24.70;92.10
24814;DHT22;12904;50.088;11.414;2023-10-13T13:44:46;24.70;82.40
24814;DHT22;12904;50.088;11.414;2023-10-13T13:47:15;24.80;83.50
24814;DHT22;12904;50.088;11.414;2023-10-13T13:49:42;24.80;90.10
24814;DHT22;12904;50.088;11.414;2023-10-13T13:52:17;24.80;83.10
24814;DHT22;12904;50.088;11.414;2023-10-13T13:54:47;24.80;79.60
24814;DHT22;12904;50.088;11.414;2023-10-13T13:57:13;24.60;79.50
24814;DHT22;12904;50.088;11.414;2023-10-13T13:59:40;24.50;80.70
24814;DHT22;12904;50.088;11.414;2023-10-13T14:02:10;24.40;81.80
24814;DHT22;12904;50.088;11.414;2023-10-13T14:04:46;24.30;84.60
24814;DHT22;12904;50.088;11.414;2023-10-13T14:07:13;24.30;77.30
24814;DHT22;12904;50.088;11.414;2023-10-13T14:09:40;24.40;77.90
24814;DHT22;12904;50.088;11.414;2023-10-13T14:12:09;24.60;84.10
24814;DHT22;12904;50.088;11.414;2023-10-13T14:14:53;24.80;76.20
24814;DHT22;12904;50.088;11.414;2023-10-13T14:17:23;24.80;77.00
24814;DHT22;12904;50.088;11.414;2023-10-13T14:19:57;24.80;77.20
24814;DHT22;12904;50.088;11.414;2023-10-13T14:22:24;24.60;82.00
24814;DHT22;12904;50.088;11.414;2023-10-13T14:24:52;24.30;83.60
24814;DHT22;12904;50.088;11.414;2023-10-13T14:27:21;24.10;82.80
24814;DHT22;12904;50.088;11.414;2023-10-13T14:29:51;23.90;90.70
24814;DHT22;12904;50.088;11.414;2023-10-13T14:32:21;23.70;92.50
24814;DHT22;12904;50.088;11.414;2023-10-13T14:34:50;23.50;94.20
24814;DHT22;12904;50.088;11.414;2023-10-13T14:37:25;23.40;94.20
24814;DHT22;12904;50.088;11.414;2023-10-13T14:39:57;23.40;96.30
24814;DHT22;12904;50.088;11.414;2023-10-13T14:42:24;23.40;99.90
24814;DHT22;12904;50.088;11.414;2023-10-13T14:44:50;23.50;95.90
24814;DHT22;12904;50.088;11.414;2023-10-13T14:47:24;23.80;93.50
24814;DHT22;12904;50.088;11.414;2023-10-13T14:49:52;24.00;95.70
24814;DHT22;12904;50.088;11.414;2023-10-13T14:52:20;24.10;92.40
24814;DHT22;12904;50.088;11.414;2023-10-13T14:54:46;24.30;97.70
24814;DHT22;12904;50.088;11.414;2023-10-13T14:57:13;24.30;91.40
24814;DHT22;12904;50.088;11.414;2023-10-13T14:59:39;24.30;90.30
24814;DHT22;12904;50.088;11.414;2023-10-13T15:02:04;24.10;92.30
24814;DHT22;12904;50.088;11.414;2023-10-13T15:04:30;24.00;91.00
24814;DHT22;12904;50.088;11.414;2023-10-13T15:06:59;23.80;94.70
24814;DHT22;12904;50.088;11.414;2023-10-13T15:09:28;23.70;97.10
24814;DHT22;12904;50.088;11.414;2023-10-13T15:11:53;23.50;98.50
24814;DHT22;12904;50.088;11.414;2023-10-13T15:14:20;23.50;94.20
24814;DHT22;12904;50.088;11.414;2023-10-13T15:16:46;23.40;99.40
24814;DHT22;12904;50.088;11.414;2023-10-13T15:19:12;23.30;95.00
24814;DHT22;12904;50.088;11.414;2023-10-13T15:21:37;23.30;95.20
24814;DHT22;12904;50.088;11.414;2023-10-13T15:24:06;23.30;99.30
24814;DHT22;12904;50.088;11.414;2023-10-13T15:26:47;23.30;96.90
24814;DHT22;12904;50.088;11.414;2023-10-13T15:29:17;23.20;98.90
24814;DHT22;12904;50.088;11.414;2023-10-13T15:31:44;23.20;99.90
24814;DHT22;12904;50.088;11.414;2023-10-13T15:34:31;23.10;99.90
24814;DHT22;12904;50.088;11.414;2023-10-13T15:36:58;23.00;99.50
24814;DHT22;12904;50.088;11.414;2023-10-13T15:39:25;23.00;98.10
24814;DHT22;12904;50.088;11.414;2023-10-13T15:41:54;23.00;99.90
24814;DHT22;12904;50.088;11.414;2023-10-13T15:44:24;22.90;99.90
24814;DHT22;12904;50.088;11.414;2023-10-13T15:46:56;22.90;99.90
24814;DHT22;12904;50.088;11.414;2023-10-13T15:49:23;22.80;99.90
24814;DHT22;12904;50.088;11.414;2023-10-13T15:51:49;22.80;99.90
24814;DHT22;12904;50.088;11.414;2023-10-13T15:54:16;22.70;99.90
24814;DHT22;12904;50.088;11.414;2023-10-13T15:56:46;22.70;99.90
24814;DHT22;12904;50.088;11.414;2023-10-13T15:59:12;22.60;99.90
24814;DHT22;12904;50.088;11.414;2023-10-13T16:01:38;22.50;99.90
24814;DHT22;12904;50.088;11.414;2023-10-13T16:04:09;22.40;99.90
24814;DHT22;12904;50.088;11.414;2023-10-13T16:06:43;22.30;99.90
24814;DHT22;12904;50.088;11.414;2023-10-13T16:09:16;22.30;99.90
24814;DHT22;12904;50.088;11.414;2023-10-13T16:11:45;22.20;99.90
24814;DHT22;12904;50.088;11.414;2023-10-13T16:14:12;22.20;99.90
24814;DHT22;12904;50.088;11.414;2023-10-13T16:16:44;22.00;99.90
24814;DHT22;12904;50.088;11.414;2023-10-13T16:19:15;22.00;99.90
24814;DHT22;12904;50.088;11.414;2023-10-13T16:21:47;21.90;99.90
24814;DHT22;12904;50.088;11.414;2023-10-13T16:24:13;21.80;99.90